VIR26Q KJFK-EGLL
Flight info
| Callsign | VIR26Q |
|---|---|
| Flight time | N/A |
| Altitude | 35000 |
| Route | MERIT DCT HFD DCT PUT DCT WITCH DCT EBONY DCT TUDEP/M083F350 DCT 5250N DCT 5540N DCT 5630N DCT 5620N DCT ETARI/N0479F350 DCT MOGLO DCT REVNU DCT BOFUM Q37 MALUD Q38 NUGRA |
| Aircraft | A346/H-SDE2E3FGHIJ3J4J5M1RWXY/LB1D1 |
Departure
| Time | 2026-05-01 12:47 |
|---|---|
| Airport | John F. Kennedy International Airport (KJFK) |
Arrival
| Time | N/A |
|---|---|
| Airport | London Heathrow Airport (EGLL) |
| Time | Latitude | Longitude | Altitude | Speed | Heading |
|---|---|---|---|---|---|
| 2026-05-01 11:52 | 40.64389 | -73.77918 | 31 ft | 0 kts | 240° |
| 2026-05-01 12:28 | 40.64390 | -73.77918 | 31 ft | 1 kts | 240° |
| 2026-05-01 12:28 | 40.64410 | -73.77872 | 29 ft | 3 kts | 239° |
| 2026-05-01 12:29 | 40.64419 | -73.77852 | 29 ft | 3 kts | 242° |
| 2026-05-01 12:29 | 40.64426 | -73.77829 | 29 ft | 3 kts | 259° |
| 2026-05-01 12:29 | 40.64422 | -73.77781 | 29 ft | 3 kts | 293° |
| 2026-05-01 12:30 | 40.64402 | -73.77735 | 30 ft | 3 kts | 307° |
| 2026-05-01 12:30 | 40.64388 | -73.77715 | 30 ft | 3 kts | 315° |
| 2026-05-01 12:30 | 40.64373 | -73.77697 | 30 ft | 3 kts | 323° |
| 2026-05-01 12:31 | 40.64356 | -73.77682 | 28 ft | 3 kts | 330° |
| 2026-05-01 12:31 | 40.64340 | -73.77670 | 29 ft | 3 kts | 331° |
| 2026-05-01 12:31 | 40.64322 | -73.77657 | 29 ft | 3 kts | 331° |
| 2026-05-01 12:31 | 40.64303 | -73.77643 | 29 ft | 3 kts | 331° |
| 2026-05-01 12:32 | 40.64285 | -73.77630 | 29 ft | 3 kts | 330° |
| 2026-05-01 12:32 | 40.64248 | -73.77603 | 29 ft | 3 kts | 330° |
| 2026-05-01 12:32 | 40.64236 | -73.77594 | 30 ft | 3 kts | 330° |
| 2026-05-01 12:33 | 40.64212 | -73.77576 | 30 ft | 3 kts | 330° |
| 2026-05-01 12:33 | 40.64200 | -73.77567 | 28 ft | 3 kts | 330° |
| 2026-05-01 12:33 | 40.64181 | -73.77554 | 29 ft | 3 kts | 330° |
| 2026-05-01 12:33 | 40.64163 | -73.77540 | 30 ft | 3 kts | 330° |
| 2026-05-01 12:34 | 40.64145 | -73.77527 | 29 ft | 3 kts | 330° |
| 2026-05-01 12:34 | 40.64129 | -73.77515 | 29 ft | 3 kts | 333° |
| 2026-05-01 12:34 | 40.64111 | -73.77507 | 28 ft | 3 kts | 352° |
| 2026-05-01 12:34 | 40.64093 | -73.77507 | 30 ft | 3 kts | 12° |
| 2026-05-01 12:35 | 40.64075 | -73.77515 | 30 ft | 3 kts | 27° |
| 2026-05-01 12:35 | 40.64059 | -73.77528 | 29 ft | 3 kts | 31° |
| 2026-05-01 12:35 | 40.64041 | -73.77542 | 30 ft | 3 kts | 31° |
| 2026-05-01 12:35 | 40.64034 | -73.77547 | 29 ft | 0 kts | 31° |
| 2026-05-01 12:38 | 40.64042 | -73.77541 | 30 ft | 2 kts | 31° |
| 2026-05-01 12:38 | 40.64064 | -73.77524 | 29 ft | 5 kts | 31° |
| 2026-05-01 12:38 | 40.64087 | -73.77502 | 29 ft | 4 kts | 51° |
| 2026-05-01 12:39 | 40.64088 | -73.77468 | 29 ft | 5 kts | 113° |
| 2026-05-01 12:39 | 40.64061 | -73.77417 | 29 ft | 8 kts | 126° |
| 2026-05-01 12:39 | 40.64031 | -73.77362 | 30 ft | 4 kts | 126° |
| 2026-05-01 12:39 | 40.64009 | -73.77336 | 30 ft | 5 kts | 163° |
| 2026-05-01 12:40 | 40.63960 | -73.77351 | 29 ft | 9 kts | 207° |
| 2026-05-01 12:40 | 40.63898 | -73.77401 | 29 ft | 12 kts | 212° |
| 2026-05-01 12:40 | 40.63818 | -73.77465 | 27 ft | 15 kts | 210° |
| 2026-05-01 12:40 | 40.63725 | -73.77538 | 27 ft | 15 kts | 211° |
| 2026-05-01 12:41 | 40.63638 | -73.77606 | 28 ft | 14 kts | 211° |
| 2026-05-01 12:41 | 40.63549 | -73.77676 | 29 ft | 15 kts | 210° |
| 2026-05-01 12:41 | 40.63464 | -73.77741 | 33 ft | 13 kts | 210° |
| 2026-05-01 12:41 | 40.63391 | -73.77804 | 35 ft | 12 kts | 221° |
| 2026-05-01 12:42 | 40.63361 | -73.77839 | 34 ft | 3 kts | 214° |
| 2026-05-01 12:42 | 40.63341 | -73.77841 | 35 ft | 4 kts | 165° |
| 2026-05-01 12:42 | 40.63317 | -73.77819 | 35 ft | 5 kts | 133° |
| 2026-05-01 12:42 | 40.63290 | -73.77768 | 35 ft | 8 kts | 122° |
| 2026-05-01 12:43 | 40.63256 | -73.77693 | 35 ft | 11 kts | 121° |
| 2026-05-01 12:43 | 40.63216 | -73.77605 | 37 ft | 11 kts | 121° |
| 2026-05-01 12:43 | 40.63175 | -73.77513 | 38 ft | 12 kts | 121° |
| 2026-05-01 12:43 | 40.63127 | -73.77408 | 37 ft | 15 kts | 121° |
| 2026-05-01 12:44 | 40.63076 | -73.77295 | 36 ft | 13 kts | 121° |
| 2026-05-01 12:44 | 40.63028 | -73.77190 | 34 ft | 14 kts | 121° |
| 2026-05-01 12:44 | 40.62935 | -73.77093 | 32 ft | 10 kts | 201° |
| 2026-05-01 12:45 | 40.62826 | -73.77183 | 32 ft | 5 kts | 236° |
| 2026-05-01 12:45 | 40.62829 | -73.77239 | 32 ft | 8 kts | 294° |
| 2026-05-01 12:45 | 40.62864 | -73.77322 | 34 ft | 21 kts | 300° |
| 2026-05-01 12:46 | 40.63042 | -73.77714 | 39 ft | 78 kts | 301° |
| 2026-05-01 12:46 | 40.63413 | -73.78533 | 31 ft | 129 kts | 300° |
| 2026-05-01 12:46 | 40.63949 | -73.79719 | 29 ft | 171 kts | 301° |
| 2026-05-01 12:46 | 40.64594 | -73.81175 | 250 ft | 189 kts | 302° |
| 2026-05-01 12:47 | 40.65173 | -73.82705 | 892 ft | 188 kts | 284° |
| 2026-05-01 12:47 | 40.64961 | -73.84410 | 1407 ft | 200 kts | 238° |
| 2026-05-01 12:47 | 40.63915 | -73.85670 | 1854 ft | 210 kts | 221° |
| 2026-05-01 12:47 | 40.62733 | -73.86891 | 2144 ft | 223 kts | 220° |
| 2026-05-01 12:48 | 40.61473 | -73.88184 | 2421 ft | 237 kts | 217° |
| 2026-05-01 12:48 | 40.59897 | -73.89044 | 2610 ft | 258 kts | 185° |
| 2026-05-01 12:48 | 40.58078 | -73.88720 | 2856 ft | 273 kts | 156° |
| 2026-05-01 12:48 | 40.56341 | -73.87672 | 3482 ft | 275 kts | 156° |
| 2026-05-01 12:49 | 40.54567 | -73.86727 | 4185 ft | 276 kts | 160° |
| 2026-05-01 12:49 | 40.52734 | -73.85956 | 4900 ft | 277 kts | 166° |
| 2026-05-01 12:49 | 40.50859 | -73.85277 | 5565 ft | 280 kts | 166° |
| 2026-05-01 12:49 | 40.48971 | -73.84605 | 6241 ft | 283 kts | 167° |
| 2026-05-01 12:50 | 40.47072 | -73.83879 | 6883 ft | 288 kts | 158° |
| 2026-05-01 12:50 | 40.45450 | -73.82290 | 7378 ft | 298 kts | 126° |
| 2026-05-01 12:50 | 40.44609 | -73.79811 | 7928 ft | 301 kts | 95° |
| 2026-05-01 12:50 | 40.44783 | -73.77112 | 8516 ft | 296 kts | 64° |
| 2026-05-01 12:51 | 40.45907 | -73.74933 | 9130 ft | 285 kts | 32° |
| 2026-05-01 12:51 | 40.47586 | -73.73568 | 9858 ft | 279 kts | 22° |
| 2026-05-01 12:51 | 40.51220 | -73.71047 | 10367 ft | 313 kts | 20° |
| 2026-05-01 12:52 | 40.53193 | -73.69778 | 10645 ft | 328 kts | 20° |
| 2026-05-01 12:52 | 40.57511 | -73.67000 | 11215 ft | 358 kts | 20° |
| 2026-05-01 12:52 | 40.59792 | -73.65523 | 11487 ft | 373 kts | 21° |
| 2026-05-01 12:53 | 40.64559 | -73.62419 | 12417 ft | 389 kts | 21° |
| 2026-05-01 12:53 | 40.67002 | -73.60818 | 13019 ft | 394 kts | 21° |
| 2026-05-01 12:53 | 40.69475 | -73.59198 | 13588 ft | 400 kts | 21° |
| 2026-05-01 12:54 | 40.71980 | -73.57557 | 14117 ft | 405 kts | 21° |
| 2026-05-01 12:54 | 40.77075 | -73.54213 | 15203 ft | 412 kts | 21° |
| 2026-05-01 12:54 | 40.79655 | -73.52520 | 15790 ft | 415 kts | 21° |
| 2026-05-01 12:55 | 40.84868 | -73.49102 | 16909 ft | 422 kts | 21° |
| 2026-05-01 12:55 | 40.87502 | -73.47368 | 17449 ft | 425 kts | 21° |
| 2026-05-01 12:55 | 40.90166 | -73.45614 | 18008 ft | 428 kts | 21° |
| 2026-05-01 12:56 | 40.92839 | -73.43852 | 18493 ft | 432 kts | 21° |
| 2026-05-01 12:56 | 40.95541 | -73.42071 | 18961 ft | 435 kts | 21° |
| 2026-05-01 12:56 | 40.98260 | -73.40276 | 19410 ft | 439 kts | 21° |
| 2026-05-01 12:56 | 41.01001 | -73.38469 | 19865 ft | 442 kts | 21° |
| 2026-05-01 12:57 | 41.03764 | -73.36643 | 20310 ft | 446 kts | 21° |
| 2026-05-01 12:57 | 41.09353 | -73.32940 | 21205 ft | 453 kts | 21° |
| 2026-05-01 12:57 | 41.12185 | -73.31062 | 21638 ft | 456 kts | 21° |
| 2026-05-01 12:58 | 41.15028 | -73.29176 | 22046 ft | 460 kts | 21° |
| 2026-05-01 12:58 | 41.17902 | -73.27266 | 22497 ft | 463 kts | 21° |
| 2026-05-01 12:58 | 41.20799 | -73.25344 | 22920 ft | 467 kts | 21° |
| 2026-05-01 12:59 | 41.26687 | -73.21419 | 23728 ft | 473 kts | 21° |
| 2026-05-01 12:59 | 41.29634 | -73.19451 | 24071 ft | 476 kts | 21° |
| 2026-05-01 12:59 | 41.35549 | -73.15339 | 24742 ft | 487 kts | 28° |
| 2026-05-01 13:00 | 41.40441 | -73.08928 | 25503 ft | 504 kts | 53° |
| 2026-05-01 13:00 | 41.42283 | -73.04933 | 25866 ft | 507 kts | 57° |
| 2026-05-01 13:01 | 41.45812 | -72.96694 | 26418 ft | 515 kts | 58° |
| 2026-05-01 13:01 | 41.47603 | -72.92530 | 26716 ft | 518 kts | 58° |
| 2026-05-01 13:01 | 41.51235 | -72.84188 | 27394 ft | 522 kts | 57° |
| 2026-05-01 13:02 | 41.53074 | -72.79989 | 27699 ft | 525 kts | 57° |
| 2026-05-01 13:07 | 41.91703 | -71.93088 | 34340 ft | 529 kts | 57° |
| 2026-05-01 13:07 | 41.93704 | -71.88932 | 34502 ft | 529 kts | 54° |
| 2026-05-01 13:07 | 41.95879 | -71.84935 | 34671 ft | 529 kts | 50° |
| 2026-05-01 13:08 | 41.98226 | -71.81121 | 34900 ft | 529 kts | 46° |
| 2026-05-01 13:08 | 42.03359 | -71.74032 | 34911 ft | 528 kts | 42° |
| 2026-05-01 13:09 | 42.08654 | -71.67170 | 34914 ft | 528 kts | 41° |
| 2026-05-01 13:09 | 42.13935 | -71.60292 | 34924 ft | 528 kts | 42° |
| 2026-05-01 13:10 | 42.19205 | -71.53381 | 34903 ft | 528 kts | 42° |
| 2026-05-01 13:10 | 42.24454 | -71.46460 | 34907 ft | 527 kts | 43° |
| 2026-05-01 13:11 | 42.29701 | -71.39524 | 34919 ft | 527 kts | 43° |
| 2026-05-01 13:11 | 42.34982 | -71.32534 | 34916 ft | 528 kts | 43° |
| 2026-05-01 13:12 | 42.40222 | -71.25569 | 34909 ft | 528 kts | 43° |
| 2026-05-01 13:12 | 42.45461 | -71.18592 | 34915 ft | 528 kts | 43° |
| 2026-05-01 13:13 | 42.50696 | -71.11608 | 34910 ft | 528 kts | 43° |
| 2026-05-01 13:13 | 42.55923 | -71.04611 | 34895 ft | 528 kts | 43° |
| 2026-05-01 13:14 | 42.61144 | -70.97605 | 34892 ft | 528 kts | 43° |
| 2026-05-01 13:14 | 42.66333 | -70.90628 | 34899 ft | 528 kts | 44° |
| 2026-05-01 13:15 | 42.70735 | -70.84220 | 34879 ft | 527 kts | 48° |
| 2026-05-01 13:15 | 42.75001 | -70.77496 | 34886 ft | 527 kts | 49° |
| 2026-05-01 13:16 | 42.79638 | -70.70115 | 34879 ft | 527 kts | 49° |
| 2026-05-01 13:16 | 42.84409 | -70.62523 | 34869 ft | 527 kts | 49° |
| 2026-05-01 13:17 | 42.93939 | -70.47336 | 34870 ft | 526 kts | 49° |
| 2026-05-01 13:18 | 43.01062 | -70.35943 | 34866 ft | 525 kts | 50° |
| 2026-05-01 13:18 | 43.05804 | -70.28331 | 34871 ft | 525 kts | 50° |
| 2026-05-01 13:19 | 43.10569 | -70.20662 | 34869 ft | 525 kts | 50° |
| 2026-05-01 13:20 | 43.17649 | -70.09232 | 34868 ft | 524 kts | 50° |
| 2026-05-01 13:20 | 43.22359 | -70.01604 | 34889 ft | 524 kts | 50° |
| 2026-05-01 13:21 | 43.29405 | -69.90156 | 34859 ft | 523 kts | 50° |
| 2026-05-01 13:21 | 43.34093 | -69.82512 | 34868 ft | 523 kts | 50° |
| 2026-05-01 13:22 | 43.38780 | -69.74853 | 34867 ft | 522 kts | 50° |
| 2026-05-01 13:22 | 43.43441 | -69.67220 | 34840 ft | 519 kts | 51° |
| 2026-05-01 13:23 | 43.48073 | -69.59607 | 34850 ft | 518 kts | 51° |
| 2026-05-01 13:23 | 43.52692 | -69.51993 | 34859 ft | 517 kts | 51° |
| 2026-05-01 13:24 | 43.57302 | -69.44383 | 34848 ft | 516 kts | 51° |
| 2026-05-01 13:25 | 43.64192 | -69.32957 | 34840 ft | 516 kts | 51° |
| 2026-05-01 13:25 | 43.68782 | -69.25328 | 34834 ft | 515 kts | 52° |
| 2026-05-01 13:26 | 43.73362 | -69.17693 | 34838 ft | 515 kts | 52° |
| 2026-05-01 13:26 | 43.77928 | -69.10056 | 34829 ft | 515 kts | 52° |
| 2026-05-01 13:27 | 43.82497 | -69.02401 | 34827 ft | 515 kts | 52° |
| 2026-05-01 13:27 | 43.89366 | -68.90858 | 34818 ft | 515 kts | 53° |
| 2026-05-01 13:28 | 43.96190 | -68.79327 | 34824 ft | 515 kts | 53° |